Time;durP1;ratioP1;P1;durP2;ratioP2;P2;SDS_P1;SDS_P2;PMS_P1;PMS_P2;Temp;Humidity;BMP_temperature;BMP_pressure;BME280_temperature;BME280_humidity;BME280_pressure;Samples;Min_cycle;Max_cycle;Signal;HPM_P1;HPM_P2
2023/10/17 00:01:35;;;;;;;17.27;7.70;;;9.80;99.90;;;;;;7182770;19;2006033;-80
2023/10/17 00:06:42;;;;;;;19.53;8.37;;;9.90;99.90;;;;;;7287251;19;20233;-79
2023/10/17 00:09:08;;;;;;;14.83;7.23;;;9.90;99.90;;;;;;7285659;19;20196;-80
2023/10/17 00:14:19;;;;;;;18.07;6.77;;;9.90;99.90;;;;;;7288838;19;20217;-80
2023/10/17 00:16:45;;;;;;;13.17;7.33;;;9.80;99.90;;;;;;7297286;19;20241;-79
2023/10/17 00:19:13;;;;;;;16.03;7.63;;;9.80;99.90;;;;;;7301169;19;20195;-79
2023/10/17 00:21:39;;;;;;;17.13;7.47;;;9.90;99.90;;;;;;7299684;19;20241;-81
2023/10/17 00:24:09;;;;;;;14.70;7.03;;;10.00;99.90;;;;;;7298172;19;20203;-80
2023/10/17 00:26:39;;;;;;;15.17;7.07;;;10.00;99.90;;;;;;7287230;19;20248;-79
2023/10/17 00:29:07;;;;;;;18.53;7.47;;;10.10;99.90;;;;;;7286606;19;20201;-80
2023/10/17 00:31:36;;;;;;;14.70;7.10;;;10.20;99.90;;;;;;7287146;19;20289;-81
2023/10/17 00:34:15;;;;;;;17.80;7.33;;;10.30;99.90;;;;;;7287606;19;20289;-79
2023/10/17 00:36:48;;;;;;;17.03;7.00;;;10.20;99.90;;;;;;7286569;19;20194;-79
2023/10/17 00:39:31;;;;;;;18.53;7.70;;;10.30;99.90;;;;;;7288680;19;20199;-79
2023/10/17 00:44:40;;;;;;;15.00;6.97;;;10.20;99.90;;;;;;7282011;19;20199;-80
2023/10/17 00:47:18;;;;;;;15.47;6.87;;;10.10;99.90;;;;;;7282373;19;20188;-79
2023/10/17 00:49:45;;;;;;;14.83;7.37;;;10.10;99.90;;;;;;7284707;19;20293;-80
2023/10/17 00:52:23;;;;;;;13.20;6.67;;;10.10;99.90;;;;;;7285939;19;20710;-78
2023/10/17 00:54:50;;;;;;;14.83;6.30;;;10.10;99.90;;;;;;7288116;19;20232;-79
2023/10/17 00:57:19;;;;;;;14.03;6.50;;;10.10;99.90;;;;;;7284762;19;20180;-81
2023/10/17 00:59:52;;;;;;;14.77;6.93;;;10.10;99.90;;;;;;7286213;19;20188;-80
2023/10/17 01:02:29;;;;;;;13.17;5.67;;;10.10;99.90;;;;;;7289215;19;20199;-81
2023/10/17 01:04:59;;;;;;;13.87;5.73;;;10.10;99.90;;;;;;7268197;19;20282;-80
2023/10/17 01:07:34;;;;;;;18.90;6.17;;;10.00;99.90;;;;;;7296451;19;20195;-79
2023/10/17 01:10:17;;;;;;;13.73;6.50;;;9.90;99.90;;;;;;7282280;19;20212;-80
2023/10/17 01:12:54;;;;;;;13.47;5.87;;;9.90;99.90;;;;;;7285225;19;20562;-80
2023/10/17 01:15:28;;;;;;;13.93;6.30;;;9.90;99.90;;;;;;7287033;19;20226;-79
2023/10/17 01:18:06;;;;;;;15.57;6.07;;;9.90;99.90;;;;;;7286086;19;20198;-79
2023/10/17 01:20:35;;;;;;;13.47;5.90;;;9.90;99.90;;;;;;7186387;19;2004684;-79
2023/10/17 01:23:01;;;;;;;11.63;5.40;;;9.80;99.90;;;;;;7286121;19;20197;-81
2023/10/17 01:25:29;;;;;;;11.87;6.00;;;9.70;99.90;;;;;;7285787;19;20205;-79
2023/10/17 01:27:57;;;;;;;13.97;6.27;;;9.70;99.90;;;;;;7293361;19;20191;-79
2023/10/17 01:30:28;;;;;;;14.90;6.30;;;9.70;99.90;;;;;;7307546;19;20198;-81
2023/10/17 01:32:55;;;;;;;13.93;6.13;;;9.70;99.90;;;;;;7285081;19;20199;-78
2023/10/17 01:35:21;;;;;;;13.20;6.20;;;9.70;99.90;;;;;;7303978;19;20225;-79
2023/10/17 01:37:47;;;;;;;11.33;5.80;;;9.70;99.90;;;;;;7282384;19;20690;-79
2023/10/17 01:40:23;;;;;;;16.90;6.57;;;9.70;99.90;;;;;;7280519;19;20187;-80
2023/10/17 01:42:53;;;;;;;15.80;6.60;;;9.70;99.90;;;;;;7282095;19;20173;-80
2023/10/17 01:45:22;;;;;;;18.17;6.80;;;9.80;99.90;;;;;;7282940;19;20185;-79
2023/10/17 01:47:48;;;;;;;14.77;6.73;;;9.90;99.90;;;;;;7282610;19;20265;-79
2023/10/17 01:50:14;;;;;;;16.30;7.03;;;9.90;99.90;;;;;;7283079;19;20202;-79
2023/10/17 01:52:42;;;;;;;14.07;6.37;;;9.80;99.90;;;;;;7280824;19;20244;-80
2023/10/17 01:55:14;;;;;;;13.97;6.60;;;9.70;99.90;;;;;;7282030;19;20651;-81
2023/10/17 01:57:40;;;;;;;14.37;6.80;;;9.80;99.90;;;;;;7285488;19;20223;-81
2023/10/17 02:00:57;;;;;;;15.40;7.00;;;9.80;99.90;;;;;;7292868;19;20230;-80
2023/10/17 02:03:12;;;;;;;17.47;6.90;;;9.70;99.90;;;;;;7184145;19;2004737;-79
2023/10/17 02:05:38;;;;;;;17.50;7.17;;;9.70;99.90;;;;;;7287535;19;20202;-79
2023/10/17 02:08:05;;;;;;;15.70;6.83;;;9.70;99.90;;;;;;7288920;19;20601;-78
2023/10/17 02:10:32;;;;;;;15.40;7.03;;;9.70;99.90;;;;;;7287129;19;20193;-79
2023/10/17 02:12:59;;;;;;;16.30;7.23;;;9.70;99.90;;;;;;7287964;19;20190;-78
2023/10/17 02:15:26;;;;;;;16.83;6.93;;;9.70;99.90;;;;;;7309910;19;20540;-80
2023/10/17 02:17:53;;;;;;;17.67;7.67;;;9.70;99.90;;;;;;7289148;19;20197;-79
2023/10/17 02:20:29;;;;;;;14.93;7.23;;;9.70;99.90;;;;;;7286460;19;20189;-79
2023/10/17 02:23:08;;;;;;;14.90;7.50;;;9.70;99.90;;;;;;7287909;19;20295;-80
2023/10/17 02:25:37;;;;;;;16.10;7.70;;;9.80;99.90;;;;;;7184671;19;2004471;-80
2023/10/17 02:28:04;;;;;;;15.10;7.17;;;9.70;99.90;;;;;;7286533;19;20190;-79
2023/10/17 02:30:30;;;;;;;14.17;7.83;;;9.70;99.90;;;;;;7287889;19;20206;-80
2023/10/17 02:32:56;;;;;;;17.03;7.53;;;9.60;99.90;;;;;;7309835;19;20190;-80
2023/10/17 02:35:39;;;;;;;14.63;7.47;;;9.70;99.90;;;;;;7288914;19;20197;-79
2023/10/17 02:38:05;;;;;;;16.53;7.40;;;9.70;99.90;;;;;;7184747;19;2004622;-80
2023/10/17 02:40:34;;;;;;;13.93;7.00;;;9.70;99.90;;;;;;7287283;19;20186;-80
2023/10/17 02:43:00;;;;;;;14.17;7.20;;;9.60;99.90;;;;;;7285817;19;20205;-81
2023/10/17 02:45:26;;;;;;;16.50;7.90;;;9.70;99.90;;;;;;7308283;19;20195;-77
2023/10/17 02:47:57;;;;;;;15.00;7.43;;;9.70;99.90;;;;;;7284102;19;20183;-77
2023/10/17 02:50:46;;;;;;;15.07;7.17;;;9.70;99.90;;;;;;7286596;19;20715;-77
2023/10/17 02:53:12;;;;;;;14.13;6.97;;;9.70;99.90;;;;;;7181791;19;2004430;-76
2023/10/17 02:55:38;;;;;;;14.90;7.63;;;9.80;99.90;;;;;;7285875;19;20643;-76
2023/10/17 02:58:04;;;;;;;16.13;7.50;;;9.80;99.90;;;;;;7283735;19;20535;-76
2023/10/17 03:00:34;;;;;;;13.57;7.07;;;9.70;99.90;;;;;;7283913;19;20258;-76
2023/10/17 03:03:00;;;;;;;13.73;7.97;;;9.70;99.90;;;;;;7286552;19;20199;-76
2023/10/17 03:05:29;;;;;;;15.03;8.30;;;9.70;99.90;;;;;;7306220;19;20195;-77
2023/10/17 03:07:55;;;;;;;15.30;7.90;;;9.70;99.90;;;;;;7286086;19;20199;-76
2023/10/17 03:10:57;;;;;;;15.77;7.90;;;9.60;99.90;;;;;;7282376;19;20247;-76
2023/10/17 03:15:48;;;;;;;15.63;8.33;;;9.70;99.90;;;;;;7284270;19;20634;-76
2023/10/17 03:18:17;;;;;;;15.60;8.70;;;9.60;99.90;;;;;;7282870;19;20189;-77
2023/10/17 03:20:52;;;;;;;16.80;8.77;;;9.60;99.90;;;;;;7283144;19;20191;-76
2023/10/17 03:23:19;;;;;;;16.83;8.47;;;9.70;99.90;;;;;;7284937;19;20332;-78
2023/10/17 03:25:46;;;;;;;17.80;9.00;;;9.70;99.90;;;;;;7282038;19;20191;-79
2023/10/17 03:28:15;;;;;;;18.70;9.07;;;9.70;99.90;;;;;;7286479;19;20199;-79
2023/10/17 03:30:42;;;;;;;18.50;9.40;;;9.70;99.90;;;;;;7286078;19;20763;-79
2023/10/17 03:33:14;;;;;;;21.67;10.00;;;9.70;99.90;;;;;;7286856;19;20205;-79
2023/10/17 03:35:56;;;;;;;20.80;8.43;;;9.80;99.90;;;;;;7285594;19;20195;-79
2023/10/17 03:38:26;;;;;;;17.20;9.33;;;9.80;99.90;;;;;;7286163;19;20203;-80
2023/10/17 03:40:54;;;;;;;23.43;9.73;;;9.80;99.90;;;;;;7288076;19;20191;-81
2023/10/17 03:43:28;;;;;;;17.77;9.50;;;9.90;99.90;;;;;;7287173;19;20193;-80
2023/10/17 03:46:04;;;;;;;19.43;9.77;;;9.90;99.90;;;;;;7288135;19;20255;-79
2023/10/17 03:48:36;;;;;;;18.03;10.47;;;9.80;99.90;;;;;;7263957;19;20642;-79
2023/10/17 03:53:32;;;;;;;19.80;10.30;;;9.50;99.90;;;;;;7285755;19;20193;-79
2023/10/17 03:56:02;;;;;;;18.33;10.37;;;9.60;99.90;;;;;;7282971;19;20203;-79
2023/10/17 04:00:57;;;;;;;20.10;10.13;;;9.50;99.90;;;;;;7306730;19;20201;-79
2023/10/17 04:08:37;;;;;;;19.30;10.20;;;9.40;99.90;;;;;;7262080;19;20195;-78
2023/10/17 04:14:01;;;;;;;22.33;10.53;;;9.40;99.90;;;;;;7283926;19;20208;-80
2023/10/17 04:16:34;;;;;;;20.17;10.70;;;9.50;99.90;;;;;;7273772;19;20184;-79
2023/10/17 04:19:16;;;;;;;19.80;10.37;;;9.60;99.90;;;;;;7284309;19;20190;-79
2023/10/17 04:21:49;;;;;;;22.17;10.33;;;9.50;99.90;;;;;;7285635;19;20190;-79
2023/10/17 04:24:27;;;;;;;22.63;10.63;;;9.50;99.90;;;;;;7283801;19;20563;-79
2023/10/17 04:27:06;;;;;;;20.07;9.77;;;9.60;99.90;;;;;;7285792;19;20532;-80
2023/10/17 04:29:33;;;;;;;21.57;9.90;;;9.50;99.90;;;;;;7181276;19;2004614;-79
2023/10/17 04:32:01;;;;;;;19.43;9.93;;;9.50;99.90;;;;;;7283895;19;20191;-79
2023/10/17 04:34:28;;;;;;;20.47;10.10;;;9.60;99.90;;;;;;7296245;19;20190;-80
2023/10/17 04:36:56;;;;;;;21.70;9.90;;;9.60;99.90;;;;;;7307282;19;20282;-80
2023/10/17 04:44:25;;;;;;;19.53;9.00;;;9.50;99.90;;;;;;7283233;19;20190;-79
2023/10/17 04:49:31;;;;;;;16.63;8.33;;;9.50;99.90;;;;;;7273860;19;20748;-79
2023/10/17 04:52:07;;;;;;;18.43;8.47;;;9.50;99.90;;;;;;7290011;19;20205;-78
2023/10/17 04:57:04;;;;;;;16.23;7.90;;;9.50;99.90;;;;;;7283686;19;20197;-80
2023/10/17 04:59:41;;;;;;;16.17;7.83;;;9.50;99.90;;;;;;7284240;19;20187;-80
2023/10/17 05:03:04;;;;;;;14.57;7.20;;;9.50;99.90;;;;;;7283955;19;20212;-80
2023/10/17 06:18:32;;;;;;;14.87;6.50;;;9.40;99.90;;;;;;7177380;19;2004547;-76
2023/10/17 06:21:07;;;;;;;16.23;6.53;;;9.40;99.90;;;;;;7283407;19;20187;-76
2023/10/17 06:26:46;;;;;;;14.67;6.80;;;9.40;99.90;;;;;;7280402;19;20539;-77
2023/10/17 06:33:04;;;;;;;12.23;5.87;;;9.40;99.90;;;;;;7281613;19;20221;-78
2023/10/17 06:34:47;;;;;;;12.03;5.87;;;9.40;99.90;;;;;;7177823;19;2004666;-75
2023/10/17 06:37:19;;;;;;;11.90;6.33;;;9.30;99.90;;;;;;7281972;19;20226;-78
2023/10/17 06:39:46;;;;;;;14.03;6.10;;;9.40;99.90;;;;;;7284377;19;20195;-77
2023/10/17 06:42:29;;;;;;;14.67;6.17;;;9.50;99.90;;;;;;7285725;19;20568;-77
2023/10/17 06:45:01;;;;;;;15.97;6.47;;;9.50;99.90;;;;;;7291685;19;20275;-77
2023/10/17 06:47:31;;;;;;;12.77;5.57;;;9.50;99.90;;;;;;7297084;19;20191;-77
2023/10/17 06:53:02;;;;;;;11.07;5.53;;;9.50;99.90;;;;;;7285086;19;20270;-78
2023/10/17 06:55:22;;;;;;;12.60;5.70;;;9.50;99.90;;;;;;7282825;19;20181;-77
2023/10/17 06:57:52;;;;;;;18.13;5.80;;;9.50;99.90;;;;;;7286308;19;20193;-77
2023/10/17 07:00:42;;;;;;;13.87;5.43;;;9.50;99.90;;;;;;7285580;19;21030;-77
2023/10/17 07:03:13;;;;;;;10.83;5.67;;;9.60;99.90;;;;;;7184868;19;2004597;-78
2023/10/17 07:05:39;;;;;;;16.50;5.57;;;9.60;99.90;;;;;;7285506;19;20180;-77
2023/10/17 07:08:14;;;;;;;16.37;4.73;;;9.60;99.90;;;;;;7285846;19;20278;-77
2023/10/17 07:10:53;;;;;;;16.30;5.50;;;9.50;99.90;;;;;;7285504;19;20223;-77
2023/10/17 07:13:50;;;;;;;13.03;5.43;;;9.60;99.90;;;;;;7284420;19;20179;-77
2023/10/17 07:16:16;;;;;;;11.17;5.17;;;9.60;99.90;;;;;;7183251;19;2004585;-78
2023/10/17 07:18:46;;;;;;;13.43;6.03;;;9.60;99.90;;;;;;7285918;19;20703;-79
2023/10/17 07:21:17;;;;;;;13.53;5.27;;;9.60;99.90;;;;;;7285964;19;20207;-77
2023/10/17 07:23:48;;;;;;;9.80;5.00;;;9.70;99.90;;;;;;7285918;19;20189;-77
2023/10/17 07:26:24;;;;;;;11.67;5.00;;;9.70;99.90;;;;;;7285501;19;20258;-77
2023/10/17 07:28:50;;;;;;;10.53;5.00;;;9.70;99.90;;;;;;7285673;19;20183;-77
2023/10/17 07:31:16;;;;;;;10.53;4.80;;;9.80;99.90;;;;;;7285382;19;20199;-77
2023/10/17 07:33:43;;;;;;;10.70;5.00;;;9.80;99.90;;;;;;7285078;19;20250;-77
2023/10/17 07:36:18;;;;;;;16.77;5.63;;;9.90;99.90;;;;;;7285496;19;20204;-77
2023/10/17 07:38:47;;;;;;;14.03;5.70;;;9.90;99.90;;;;;;7284470;19;20198;-77
2023/10/17 07:41:13;;;;;;;11.77;5.13;;;10.00;99.90;;;;;;7283745;19;20183;-78
2023/10/17 07:43:58;;;;;;;11.67;5.20;;;10.00;99.90;;;;;;7281701;19;20196;-77
2023/10/17 07:46:26;;;;;;;13.80;5.30;;;10.10;99.90;;;;;;7285545;19;20639;-77
2023/10/17 07:49:02;;;;;;;12.50;4.90;;;10.20;99.90;;;;;;7284692;19;20197;-77
2023/10/17 07:51:28;;;;;;;11.57;5.13;;;10.20;99.90;;;;;;7263823;19;20610;-78
2023/10/17 07:53:54;;;;;;;10.60;4.90;;;10.30;99.90;;;;;;7305854;19;20200;-78
2023/10/17 07:56:24;;;;;;;11.17;4.87;;;10.40;99.90;;;;;;7284702;19;20211;-78
2023/10/17 07:58:58;;;;;;;11.40;5.10;;;10.40;99.90;;;;;;7285808;19;20194;-78
2023/10/17 08:01:38;;;;;;;10.63;4.70;;;10.40;99.90;;;;;;7285718;19;20195;-77
2023/10/17 08:04:17;;;;;;;12.63;4.90;;;10.40;99.90;;;;;;7182353;19;2004638;-76
2023/10/17 08:06:44;;;;;;;11.17;4.90;;;10.40;99.90;;;;;;7283930;19;20199;-77
2023/10/17 08:09:36;;;;;;;11.33;4.60;;;10.30;99.90;;;;;;7284752;19;20202;-77
2023/10/17 08:12:05;;;;;;;11.30;4.97;;;10.30;99.90;;;;;;7182768;19;2004731;-77
2023/10/17 08:14:44;;;;;;;9.17;4.77;;;10.40;99.90;;;;;;7283665;19;20180;-77
2023/10/17 08:17:14;;;;;;;12.37;5.10;;;10.50;99.90;;;;;;7284219;19;20200;-77
2023/10/17 08:22:27;;;;;;;11.43;4.83;;;10.70;99.90;;;;;;7284319;19;20627;-77
2023/10/17 08:24:57;;;;;;;9.77;4.67;;;10.80;99.90;;;;;;7284630;19;20191;-77
2023/10/17 08:30:00;;;;;;;11.97;5.00;;;10.70;99.90;;;;;;7282926;19;20188;-77
2023/10/17 08:35:02;;;;;;;10.37;4.70;;;10.80;99.90;;;;;;7304547;19;20188;-77
2023/10/17 08:37:40;;;;;;;13.57;4.70;;;10.80;99.90;;;;;;7260535;19;20703;-84
2023/10/17 08:40:29;;;;;;;14.13;4.90;;;10.90;99.90;;;;;;7282515;19;20195;-80
2023/10/17 08:42:56;;;;;;;11.20;4.63;;;11.00;99.90;;;;;;7283988;19;20184;-81
2023/10/17 08:45:26;;;;;;;9.87;3.93;;;11.20;99.90;;;;;;7284581;19;20658;-80
2023/10/17 08:48:01;;;;;;;8.73;4.17;;;11.20;99.90;;;;;;7282559;19;20228;-81
2023/10/17 08:50:37;;;;;;;9.27;4.30;;;11.30;99.90;;;;;;7267705;19;20189;-80
2023/10/17 08:53:09;;;;;;;13.13;4.27;;;11.20;99.90;;;;;;7282262;19;20196;-80
2023/10/17 08:55:39;;;;;;;9.17;4.20;;;11.20;99.90;;;;;;7284238;19;20252;-80
2023/10/17 08:58:08;;;;;;;10.30;4.33;;;11.00;99.90;;;;;;7282273;19;20303;-80
2023/10/17 09:03:35;;;;;;;9.87;3.87;;;11.00;99.90;;;;;;7282667;19;20185;-80
2023/10/17 09:08:50;;;;;;;10.83;4.40;;;11.10;99.90;;;;;;7280025;19;20206;-78
2023/10/17 09:11:29;;;;;;;10.83;4.00;;;11.10;99.90;;;;;;7281899;19;20309;-78
2023/10/17 09:14:17;;;;;;;9.90;4.43;;;11.20;99.90;;;;;;7283275;19;20181;-78
2023/10/17 09:19:52;;;;;;;10.63;4.07;;;11.10;99.90;;;;;;7180403;19;2004324;-80
2023/10/17 09:22:44;;;;;;;11.03;4.20;;;11.10;99.90;;;;;;7281823;19;20192;-80
2023/10/17 09:25:23;;;;;;;10.97;4.27;;;11.10;99.90;;;;;;7180220;19;2004747;-80
2023/10/17 09:27:53;;;;;;;8.63;3.77;;;11.10;99.90;;;;;;7283704;19;20198;-81
2023/10/17 09:30:19;;;;;;;8.33;3.70;;;11.20;99.90;;;;;;7282451;19;20541;-81
2023/10/17 09:32:46;;;;;;;9.63;3.53;;;11.30;99.90;;;;;;7282319;19;20698;-81
2023/10/17 09:35:16;;;;;;;9.43;3.50;;;11.20;99.90;;;;;;7282028;19;20504;-80
2023/10/17 09:37:56;;;;;;;11.97;3.43;;;11.10;99.90;;;;;;7282891;19;20189;-80
2023/10/17 09:40:27;;;;;;;9.10;3.43;;;11.20;99.90;;;;;;7283494;19;20638;-79
2023/10/17 09:42:53;;;;;;;7.90;3.60;;;11.30;99.90;;;;;;7282147;19;20600;-80
2023/10/17 09:45:20;;;;;;;8.13;3.10;;;11.60;99.90;;;;;;7282495;19;20192;-79
2023/10/17 09:47:53;;;;;;;7.97;2.50;;;12.30;99.90;;;;;;7281679;19;21959;-79
2023/10/17 09:50:21;;;;;;;8.33;2.80;;;13.30;99.90;;;;;;7280026;19;20308;-79
2023/10/17 09:52:51;;;;;;;6.97;2.80;;;14.00;99.90;;;;;;7281242;19;20586;-79
2023/10/17 09:55:23;;;;;;;6.40;2.50;;;14.60;99.90;;;;;;7282149;19;20220;-80
2023/10/17 09:58:03;;;;;;;8.63;2.97;;;15.80;99.90;;;;;;7249178;19;20206;-80
2023/10/17 10:00:38;;;;;;;7.47;2.67;;;16.30;99.90;;;;;;7259135;19;20193;-80
2023/10/17 10:03:06;;;;;;;7.27;2.40;;;16.30;99.90;;;;;;7279455;19;20188;-81
2023/10/17 10:05:32;;;;;;;9.33;2.57;;;16.60;99.90;;;;;;7283016;19;20194;-81
2023/10/17 10:08:34;;;;;;;9.97;2.70;;;17.30;99.90;;;;;;7282429;19;20246;-80
2023/10/17 10:11:02;;;;;;;5.73;2.60;;;17.40;99.90;;;;;;7258695;19;20223;-81
2023/10/17 10:13:31;;;;;;;5.93;2.53;;;17.30;99.90;;;;;;7280706;19;20188;-81
2023/10/17 10:16:08;;;;;;;5.53;2.53;;;17.00;99.90;;;;;;7295198;19;20199;-81
2023/10/17 10:18:40;;;;;;;8.97;2.70;;;17.10;99.90;;;;;;7282264;19;20714;-80
2023/10/17 10:21:12;;;;;;;8.00;2.30;;;17.00;99.90;;;;;;7289748;19;21490;-81
2023/10/17 10:23:42;;;;;;;8.03;2.50;;;16.90;99.90;;;;;;7286364;19;20225;-81
2023/10/17 10:26:19;;;;;;;6.93;2.20;;;16.50;99.90;;;;;;7289955;19;20192;-82
2023/10/17 10:28:52;;;;;;;6.90;2.40;;;16.50;99.90;;;;;;7287868;19;20182;-81
2023/10/17 10:31:26;;;;;;;6.93;2.37;;;16.80;99.90;;;;;;7287210;19;20193;-82
2023/10/17 10:33:54;;;;;;;6.07;2.13;;;17.00;99.90;;;;;;7284995;19;20722;-82
2023/10/17 10:36:22;;;;;;;6.50;2.20;;;17.50;99.90;;;;;;7285146;19;20192;-82
2023/10/17 10:38:48;;;;;;;7.00;2.40;;;18.00;99.90;;;;;;7287192;19;20178;-82
2023/10/17 10:41:15;;;;;;;7.90;2.73;;;18.20;99.90;;;;;;7286227;19;20192;-81
2023/10/17 10:43:46;;;;;;;7.17;2.60;;;18.60;99.90;;;;;;7287650;19;20196;-81
2023/10/17 10:46:14;;;;;;;9.57;2.97;;;18.30;99.90;;;;;;7287454;19;20560;-81
2023/10/17 10:48:53;;;;;;;7.40;2.40;;;17.60;99.90;;;;;;7286166;19;20189;-81
2023/10/17 10:51:21;;;;;;;7.03;2.50;;;17.70;99.90;;;;;;7286608;19;20185;-81
2023/10/17 10:53:54;;;;;;;6.17;2.40;;;18.20;99.90;;;;;;7285706;19;20202;-82
2023/10/17 10:56:24;;;;;;;6.70;2.33;;;17.90;99.90;;;;;;7287386;19;20235;-79
2023/10/17 10:58:53;;;;;;;4.87;2.03;;;18.10;99.90;;;;;;7285204;19;20229;-81
2023/10/17 11:01:20;;;;;;;6.23;2.20;;;18.30;99.90;;;;;;7287136;19;20190;-81
2023/10/17 11:03:47;;;;;;;5.40;2.50;;;18.80;99.90;;;;;;7287571;19;20766;-80
2023/10/17 11:06:37;;;;;;;8.23;2.47;;;19.00;99.90;;;;;;7287253;19;20225;-81
2023/10/17 11:09:07;;;;;;;5.23;2.30;;;19.50;99.90;;;;;;7181738;19;2004622;-81
2023/10/17 11:11:43;;;;;;;7.47;2.33;;;19.30;99.90;;;;;;7286073;19;20192;-80
2023/10/17 11:14:16;;;;;;;7.47;2.70;;;18.70;99.90;;;;;;7285149;19;20646;-84
2023/10/17 11:16:42;;;;;;;7.67;2.70;;;18.70;99.90;;;;;;7285996;19;20542;-83
2023/10/17 11:19:19;;;;;;;6.90;2.30;;;18.70;99.90;;;;;;7285965;19;20185;-83
2023/10/17 11:21:52;;;;;;;6.90;2.63;;;18.30;99.90;;;;;;7285574;19;20198;-83
2023/10/17 11:24:19;;;;;;;5.73;2.07;;;18.10;99.90;;;;;;7285478;19;20181;-83
2023/10/17 11:26:45;;;;;;;5.70;2.53;;;18.10;99.90;;;;;;7287967;19;20527;-82
2023/10/17 11:29:12;;;;;;;7.10;2.50;;;18.00;99.90;;;;;;7286551;19;20181;-83
2023/10/17 11:31:41;;;;;;;7.77;2.40;;;18.10;99.90;;;;;;7285387;19;20192;-82
2023/10/17 11:34:07;;;;;;;5.80;2.60;;;18.10;99.90;;;;;;7286312;19;20712;-83
2023/10/17 11:36:54;;;;;;;6.03;2.20;;;18.00;99.90;;;;;;7285391;19;20641;-83
2023/10/17 11:39:20;;;;;;;6.27;2.27;;;18.00;99.90;;;;;;7284008;19;20184;-82
2023/10/17 11:41:53;;;;;;;7.00;2.70;;;18.10;99.90;;;;;;7285855;19;20658;-82
2023/10/17 11:44:23;;;;;;;6.33;2.37;;;18.00;99.90;;;;;;7284512;19;20205;-82
2023/10/17 11:47:02;;;;;;;6.40;2.60;;;17.80;99.90;;;;;;7285079;19;20554;-81
2023/10/17 11:49:35;;;;;;;6.57;2.40;;;18.50;99.90;;;;;;7268870;19;20192;-81
2023/10/17 11:52:10;;;;;;;5.93;2.10;;;18.80;99.90;;;;;;7283927;19;20190;-82
2023/10/17 11:55:00;;;;;;;5.63;2.10;;;18.70;99.90;;;;;;7285306;19;20180;-82
2023/10/17 11:57:28;;;;;;;6.70;2.20;;;18.30;99.90;;;;;;7286810;19;20671;-82
2023/10/17 12:02:47;;;;;;;7.27;2.10;;;18.20;99.90;;;;;;7182460;19;2004549;-81
2023/10/17 12:05:19;;;;;;;8.13;2.30;;;18.00;99.90;;;;;;7285542;19;20210;-81
2023/10/17 12:07:49;;;;;;;7.43;2.37;;;18.10;99.90;;;;;;7286082;19;20186;-80
2023/10/17 12:10:18;;;;;;;7.33;2.10;;;17.90;99.90;;;;;;7281729;19;20188;-80
2023/10/17 12:12:44;;;;;;;6.27;2.10;;;17.90;99.90;;;;;;7286085;19;20189;-80
2023/10/17 12:15:13;;;;;;;6.13;1.93;;;17.80;99.90;;;;;;7284202;19;20193;-81
2023/10/17 12:17:44;;;;;;;4.40;2.10;;;17.80;99.90;;;;;;7283865;19;20188;-81
2023/10/17 12:20:13;;;;;;;7.03;2.33;;;17.70;99.90;;;;;;7284562;19;20248;-81
2023/10/17 12:22:40;;;;;;;8.30;2.63;;;17.70;99.90;;;;;;7282290;19;20212;-80
2023/10/17 12:25:09;;;;;;;7.93;1.90;;;18.10;99.90;;;;;;7283894;19;20529;-81
2023/10/17 12:27:35;;;;;;;5.93;2.10;;;18.20;99.90;;;;;;7283111;19;20571;-80
2023/10/17 12:30:01;;;;;;;6.20;2.13;;;18.20;99.90;;;;;;7281554;19;20252;-80
2023/10/17 12:32:27;;;;;;;7.30;2.60;;;18.00;99.90;;;;;;7302129;19;20191;-81
2023/10/17 12:34:57;;;;;;;6.33;2.13;;;17.60;99.90;;;;;;7300459;19;20177;-81
2023/10/17 12:37:23;;;;;;;4.30;2.10;;;17.10;99.90;;;;;;7283431;19;20183;-81
2023/10/17 12:39:49;;;;;;;4.97;2.37;;;17.00;99.90;;;;;;7284198;19;20212;-80
2023/10/17 12:42:15;;;;;;;4.87;2.27;;;17.00;99.90;;;;;;7283175;19;20547;-81
2023/10/17 12:44:41;;;;;;;6.73;1.97;;;16.90;99.90;;;;;;7284104;19;20532;-80
2023/10/17 12:47:06;;;;;;;4.50;2.00;;;16.90;99.90;;;;;;7284185;19;20203;-81
2023/10/17 12:49:32;;;;;;;4.93;2.23;;;17.00;99.90;;;;;;7281830;19;20184;-80
2023/10/17 12:52:00;;;;;;;7.00;2.17;;;17.10;99.90;;;;;;7288323;19;20671;-81
2023/10/17 12:54:27;;;;;;;4.97;1.87;;;16.90;99.90;;;;;;7303180;19;20184;-80
2023/10/17 12:56:53;;;;;;;9.17;2.37;;;16.80;99.90;;;;;;7283502;19;20199;-82
2023/10/17 12:59:19;;;;;;;5.93;1.77;;;16.90;99.90;;;;;;7281694;19;20192;-81
2023/10/17 13:01:46;;;;;;;5.27;1.93;;;16.60;99.90;;;;;;7281550;19;20188;-81
2023/10/17 13:04:11;;;;;;;7.97;2.10;;;16.60;99.90;;;;;;7283510;19;20753;-80
2023/10/17 13:06:38;;;;;;;4.70;1.80;;;16.20;99.90;;;;;;7282553;19;20195;-81
2023/10/17 13:09:04;;;;;;;5.43;2.23;;;15.90;99.90;;;;;;7282457;19;20186;-80
2023/10/17 13:11:31;;;;;;;5.90;2.40;;;15.70;99.90;;;;;;7282759;19;20190;-80
2023/10/17 13:14:00;;;;;;;5.30;2.20;;;15.50;99.90;;;;;;7304320;19;20194;-80
2023/10/17 13:16:28;;;;;;;7.00;2.53;;;15.40;99.90;;;;;;7304320;19;20190;-80
2023/10/17 13:18:56;;;;;;;4.77;2.30;;;15.20;99.90;;;;;;7283490;19;20192;-80
2023/10/17 13:21:25;;;;;;;4.60;2.00;;;14.90;99.90;;;;;;7283074;19;20196;-80
2023/10/17 13:23:51;;;;;;;3.77;1.80;;;14.70;99.90;;;;;;7281584;19;20307;-80
2023/10/17 13:26:20;;;;;;;8.63;2.47;;;14.50;99.90;;;;;;7284670;19;20637;-80
2023/10/17 13:28:47;;;;;;;5.73;2.17;;;14.50;99.90;;;;;;7284013;19;20192;-81
2023/10/17 13:31:14;;;;;;;6.53;2.27;;;14.50;99.90;;;;;;7282410;19;20200;-80
2023/10/17 13:33:42;;;;;;;6.00;2.00;;;14.60;99.90;;;;;;7282139;19;20189;-80
2023/10/17 13:36:11;;;;;;;6.93;2.03;;;14.60;99.90;;;;;;7282932;19;20195;-80
2023/10/17 13:38:38;;;;;;;4.87;1.97;;;14.50;99.90;;;;;;7282520;19;20196;-80
2023/10/17 13:41:05;;;;;;;6.87;2.10;;;14.40;99.90;;;;;;7280543;19;20187;-81
2023/10/17 13:43:33;;;;;;;5.20;1.83;;;14.30;99.90;;;;;;7282275;19;20305;-81
2023/10/17 13:46:00;;;;;;;4.60;2.07;;;14.30;99.90;;;;;;7283192;19;20194;-81
2023/10/17 13:48:27;;;;;;;6.20;2.20;;;14.40;99.90;;;;;;7304057;19;20202;-81
2023/10/17 13:51:00;;;;;;;5.27;2.13;;;14.40;99.90;;;;;;7279981;19;20324;-81
2023/10/17 13:53:27;;;;;;;5.33;2.07;;;14.30;99.90;;;;;;7280040;19;20195;-80
2023/10/17 13:55:54;;;;;;;5.57;2.03;;;14.30;99.90;;;;;;7287100;19;20263;-80
2023/10/17 13:58:20;;;;;;;8.37;2.10;;;14.20;99.90;;;;;;7289064;19;20198;-81
2023/10/17 14:00:51;;;;;;;7.40;1.80;;;14.20;99.90;;;;;;7289617;19;20212;-80
2023/10/17 14:03:17;;;;;;;6.17;1.90;;;14.30;99.90;;;;;;7287464;19;20260;-81
2023/10/17 14:05:49;;;;;;;5.60;2.03;;;14.40;99.90;;;;;;7288525;19;20193;-81
2023/10/17 14:08:25;;;;;;;4.83;1.80;;;14.40;99.90;;;;;;7287528;19;20192;-80
2023/10/17 14:10:51;;;;;;;7.53;1.87;;;14.40;99.90;;;;;;7287066;19;20610;-80
2023/10/17 14:13:18;;;;;;;8.23;2.10;;;14.20;99.90;;;;;;7288462;19;22230;-80
2023/10/17 14:15:44;;;;;;;5.70;1.80;;;14.20;99.90;;;;;;7289459;19;20639;-80
2023/10/17 14:18:13;;;;;;;5.73;1.73;;;14.10;99.90;;;;;;7287864;19;20219;-80
2023/10/17 14:21:03;;;;;;;7.10;1.90;;;14.10;99.90;;;;;;7289076;19;20207;-80
2023/10/17 14:23:29;;;;;;;6.63;1.90;;;14.30;99.90;;;;;;7288880;19;20188;-80
2023/10/17 14:26:12;;;;;;;5.10;1.80;;;14.30;99.90;;;;;;7291200;19;20219;-81
2023/10/17 14:28:38;;;;;;;5.80;1.60;;;14.40;99.90;;;;;;7185610;19;2004605;-80
2023/10/17 14:31:05;;;;;;;14.33;2.87;;;14.50;99.90;;;;;;7289287;19;20187;-81
2023/10/17 14:33:32;;;;;;;6.80;2.00;;;14.50;99.90;;;;;;7288992;19;20656;-80
2023/10/17 14:36:03;;;;;;;7.77;2.00;;;14.40;99.90;;;;;;7294304;19;20236;-80
2023/10/17 14:38:28;;;;;;;5.67;1.70;;;14.40;99.90;;;;;;7292729;19;20668;-80
2023/10/17 14:40:54;;;;;;;5.83;1.73;;;14.30;99.90;;;;;;7310326;19;21084;-80
2023/10/17 14:43:20;;;;;;;8.00;1.80;;;14.30;99.90;;;;;;7289862;19;20183;-81
2023/10/17 14:45:46;;;;;;;6.13;1.83;;;14.30;99.90;;;;;;7288377;19;20212;-82
2023/10/17 14:48:12;;;;;;;6.37;1.87;;;14.30;99.90;;;;;;7290313;19;20209;-81
2023/10/17 14:50:39;;;;;;;6.63;1.60;;;14.50;99.90;;;;;;7292166;19;20195;-81
2023/10/17 14:53:05;;;;;;;5.47;1.90;;;14.40;99.90;;;;;;7290019;19;20730;-80
2023/10/17 14:55:32;;;;;;;4.57;1.50;;;14.40;99.90;;;;;;7285984;19;20640;-79
2023/10/17 14:57:57;;;;;;;7.07;2.00;;;14.40;99.90;;;;;;7303855;19;20200;-80
2023/10/17 15:00:23;;;;;;;4.10;1.70;;;14.30;99.90;;;;;;7304458;19;20184;-80
2023/10/17 15:02:50;;;;;;;6.53;1.93;;;14.20;99.90;;;;;;7286861;19;20195;-80
2023/10/17 15:05:16;;;;;;;6.10;1.87;;;14.20;99.90;;;;;;7285013;19;20185;-81
2023/10/17 15:07:44;;;;;;;6.20;1.80;;;14.10;99.90;;;;;;7282626;19;20189;-80
2023/10/17 15:10:11;;;;;;;5.80;1.87;;;14.00;99.90;;;;;;7281250;19;20202;-80
2023/10/17 15:12:40;;;;;;;4.33;1.80;;;14.10;99.90;;;;;;7282943;19;20191;-81
2023/10/17 15:15:10;;;;;;;7.50;1.90;;;14.10;99.90;;;;;;7280119;19;20643;-79
2023/10/17 15:17:42;;;;;;;4.50;1.83;;;14.00;99.90;;;;;;7286190;19;20191;-79